<?xml version="1.0" encoding="UTF-8" standalone="no" ?>
<gpx xmlns="http://www.topografix.com/GPX/1/1" xmlns:xsi="http://www.w3.org/2001/XMLSchema-instance" xsi:schemaLocation="http://www.topografix.com/GPX/1/1 http://www.topografix.com/GPX/1/1/gpx.xsd" version="1.1" creator="VisuGPX - https://www.visugpx.com">
  <metadata>
    <name>2023-11-09-46- Sabadel-Lauzès</name>
    <desc><![CDATA[belle randonnée de 9 km sans difficulté le long du ruisseau de la Sagne et retour par la combe des fonts blanches. un jolie ruisseau à suivre jusqu'au moulin de font Faures, un lavoir bien restauré à voir et de beaux paysages
]]></desc>
  </metadata>
  <wpt lat="44.56739" lon="1.60286">
    <ele>277</ele>
    <name><![CDATA[Parking de la mairie]]></name>
  </wpt>
  <wpt lat="44.56516" lon="1.60649">
    <ele>273</ele>
    <name><![CDATA[Carrefour de la petite boucle]]></name>
  </wpt>
  <wpt lat="44.56213" lon="1.60977">
    <ele>265</ele>
    <name><![CDATA[Carrefour de la grande boucle]]></name>
  </wpt>
  <wpt lat="44.55321" lon="1.62023">
    <ele>252</ele>
    <name><![CDATA[Le Valadié]]></name>
  </wpt>
  <wpt lat="44.54203" lon="1.61507">
    <ele>222</ele>
    <name><![CDATA[Petit pont de bois]]></name>
  </wpt>
  <wpt lat="44.53931" lon="1.61411">
    <ele>204</ele>
    <name><![CDATA[Moulin de Font Faurès]]></name>
  </wpt>
  <wpt lat="44.5367" lon="1.61516">
    <ele>199</ele>
    <name><![CDATA[Lavoir]]></name>
  </wpt>
  <wpt lat="44.55065" lon="1.60506">
    <ele>274</ele>
    <name><![CDATA[Jonction route]]></name>
  </wpt>
  <wpt lat="44.55706" lon="1.60614">
    <ele>292</ele>
    <name><![CDATA[Le Vercat]]></name>
  </wpt>
  <wpt lat="44.56686" lon="1.60366">
    <ele>278</ele>
    <name><![CDATA[Croisement]]></name>
  </wpt>
  <wpt lat="44.56739" lon="1.60281">
    <ele>277</ele>
    <name><![CDATA[Parking de la mairie]]></name>
  </wpt>
  <trk>
    <name><![CDATA[Le ruisseau de la Sagne depuis Sabadel-Lauzès]]></name>
    <trkseg>
      <trkpt lat="44.56739" lon="1.60286">
        <ele>277</ele>
        <time>2021-04-05T11:15:44+02:00</time>
      </trkpt>
      <trkpt lat="44.56717" lon="1.60283">
        <ele>279</ele>
        <time>2021-04-05T11:16:55+02:00</time>
      </trkpt>
      <trkpt lat="44.56706" lon="1.60296">
        <ele>279</ele>
      </trkpt>
      <trkpt lat="44.5671" lon="1.60322">
        <ele>278</ele>
        <time>2021-04-05T11:17:42+02:00</time>
      </trkpt>
      <trkpt lat="44.56715" lon="1.60346">
        <ele>278</ele>
        <time>2021-04-05T11:18:22+02:00</time>
      </trkpt>
      <trkpt lat="44.56716" lon="1.6036">
        <ele>277</ele>
        <time>2021-04-05T11:19:13+02:00</time>
      </trkpt>
      <trkpt lat="44.56732" lon="1.60349">
        <ele>277</ele>
        <time>2021-04-05T11:19:34+02:00</time>
      </trkpt>
      <trkpt lat="44.56739" lon="1.60368">
        <ele>277</ele>
      </trkpt>
      <trkpt lat="44.56732" lon="1.60405">
        <ele>277</ele>
      </trkpt>
      <trkpt lat="44.56721" lon="1.60429">
        <ele>278</ele>
        <time>2021-04-05T11:20:04+02:00</time>
      </trkpt>
      <trkpt lat="44.56708" lon="1.60451">
        <ele>279</ele>
        <time>2021-04-05T11:20:41+02:00</time>
      </trkpt>
      <trkpt lat="44.56692" lon="1.60474">
        <ele>278</ele>
        <time>2021-04-05T11:20:57+02:00</time>
      </trkpt>
      <trkpt lat="44.56676" lon="1.60498">
        <ele>277</ele>
        <time>2021-04-05T11:21:17+02:00</time>
      </trkpt>
      <trkpt lat="44.56662" lon="1.60523">
        <ele>278</ele>
        <time>2021-04-05T11:21:35+02:00</time>
      </trkpt>
      <trkpt lat="44.56646" lon="1.60548">
        <ele>279</ele>
        <time>2021-04-05T11:21:54+02:00</time>
      </trkpt>
      <trkpt lat="44.5663" lon="1.60573">
        <ele>278</ele>
        <time>2021-04-05T11:22:23+02:00</time>
      </trkpt>
      <trkpt lat="44.56616" lon="1.606">
        <ele>277</ele>
        <time>2021-04-05T11:22:44+02:00</time>
      </trkpt>
      <trkpt lat="44.56603" lon="1.60626">
        <ele>276</ele>
        <time>2021-04-05T11:22:59+02:00</time>
      </trkpt>
      <trkpt lat="44.56584" lon="1.60645">
        <ele>272</ele>
        <time>2021-04-05T11:23:27+02:00</time>
      </trkpt>
      <trkpt lat="44.56564" lon="1.60642">
        <ele>272</ele>
        <time>2021-04-05T11:25:30+02:00</time>
      </trkpt>
      <trkpt lat="44.56546" lon="1.60635">
        <ele>273</ele>
      </trkpt>
      <trkpt lat="44.56527" lon="1.60656">
        <ele>272</ele>
        <time>2021-04-05T11:26:22+02:00</time>
      </trkpt>
      <trkpt lat="44.56516" lon="1.60649">
        <ele>273</ele>
        <time>2021-04-05T11:26:45+02:00</time>
      </trkpt>
      <trkpt lat="44.56497" lon="1.60666">
        <ele>271</ele>
        <time>2021-04-05T11:26:54+02:00</time>
      </trkpt>
      <trkpt lat="44.56475" lon="1.60676">
        <ele>273</ele>
        <time>2021-04-05T11:27:12+02:00</time>
      </trkpt>
      <trkpt lat="44.56452" lon="1.60681">
        <ele>274</ele>
        <time>2021-04-05T11:27:34+02:00</time>
      </trkpt>
      <trkpt lat="44.56431" lon="1.60689">
        <ele>275</ele>
        <time>2021-04-05T11:27:59+02:00</time>
      </trkpt>
      <trkpt lat="44.56408" lon="1.60697">
        <ele>275</ele>
        <time>2021-04-05T11:28:18+02:00</time>
      </trkpt>
      <trkpt lat="44.56384" lon="1.60704">
        <ele>274</ele>
        <time>2021-04-05T11:28:32+02:00</time>
      </trkpt>
      <trkpt lat="44.56361" lon="1.60706">
        <ele>273</ele>
        <time>2021-04-05T11:28:50+02:00</time>
      </trkpt>
      <trkpt lat="44.56339" lon="1.60704">
        <ele>273</ele>
        <time>2021-04-05T11:29:06+02:00</time>
      </trkpt>
      <trkpt lat="44.56325" lon="1.60732">
        <ele>271</ele>
        <time>2021-04-05T11:29:41+02:00</time>
      </trkpt>
      <trkpt lat="44.56321" lon="1.60763">
        <ele>270</ele>
        <time>2021-04-05T11:29:56+02:00</time>
      </trkpt>
      <trkpt lat="44.56313" lon="1.60793">
        <ele>271</ele>
        <time>2021-04-05T11:31:10+02:00</time>
      </trkpt>
      <trkpt lat="44.563" lon="1.60817">
        <ele>271</ele>
        <time>2021-04-05T11:31:31+02:00</time>
      </trkpt>
      <trkpt lat="44.56291" lon="1.6085">
        <ele>271</ele>
        <time>2021-04-05T11:31:45+02:00</time>
      </trkpt>
      <trkpt lat="44.56274" lon="1.60878">
        <ele>270</ele>
        <time>2021-04-05T11:32:40+02:00</time>
      </trkpt>
      <trkpt lat="44.56257" lon="1.60902">
        <ele>268</ele>
        <time>2021-04-05T11:32:46+02:00</time>
      </trkpt>
      <trkpt lat="44.56242" lon="1.60927">
        <ele>267</ele>
        <time>2021-04-05T11:33:00+02:00</time>
      </trkpt>
      <trkpt lat="44.56229" lon="1.60955">
        <ele>265</ele>
        <time>2021-04-05T11:33:15+02:00</time>
      </trkpt>
      <trkpt lat="44.56213" lon="1.60977">
        <ele>265</ele>
        <time>2021-04-05T11:33:24+02:00</time>
      </trkpt>
      <trkpt lat="44.56196" lon="1.61">
        <ele>264</ele>
        <time>2021-04-05T11:33:41+02:00</time>
      </trkpt>
      <trkpt lat="44.56182" lon="1.61026">
        <ele>264</ele>
        <time>2021-04-05T11:34:02+02:00</time>
      </trkpt>
      <trkpt lat="44.56179" lon="1.61058">
        <ele>264</ele>
        <time>2021-04-05T11:34:28+02:00</time>
      </trkpt>
      <trkpt lat="44.56179" lon="1.6109">
        <ele>264</ele>
        <time>2021-04-05T11:34:45+02:00</time>
      </trkpt>
      <trkpt lat="44.56165" lon="1.61109">
        <ele>262</ele>
        <time>2021-04-05T11:34:57+02:00</time>
      </trkpt>
      <trkpt lat="44.56147" lon="1.61118">
        <ele>265</ele>
        <time>2021-04-05T11:35:18+02:00</time>
      </trkpt>
      <trkpt lat="44.56128" lon="1.61137">
        <ele>266</ele>
        <time>2021-04-05T11:35:43+02:00</time>
      </trkpt>
      <trkpt lat="44.56111" lon="1.61161">
        <ele>267</ele>
        <time>2021-04-05T11:35:56+02:00</time>
      </trkpt>
      <trkpt lat="44.561" lon="1.61189">
        <ele>267</ele>
        <time>2021-04-05T11:36:32+02:00</time>
      </trkpt>
      <trkpt lat="44.56096" lon="1.61222">
        <ele>265</ele>
        <time>2021-04-05T11:36:52+02:00</time>
      </trkpt>
      <trkpt lat="44.56087" lon="1.61252">
        <ele>264</ele>
        <time>2021-04-05T11:37:39+02:00</time>
      </trkpt>
      <trkpt lat="44.56079" lon="1.61284">
        <ele>263</ele>
        <time>2021-04-05T11:37:55+02:00</time>
      </trkpt>
      <trkpt lat="44.56069" lon="1.61315">
        <ele>263</ele>
        <time>2021-04-05T11:38:16+02:00</time>
      </trkpt>
      <trkpt lat="44.56064" lon="1.61346">
        <ele>261</ele>
        <time>2021-04-05T11:38:33+02:00</time>
      </trkpt>
      <trkpt lat="44.56055" lon="1.61379">
        <ele>260</ele>
        <time>2021-04-05T11:38:46+02:00</time>
      </trkpt>
      <trkpt lat="44.56045" lon="1.61408">
        <ele>258</ele>
        <time>2021-04-05T11:39:04+02:00</time>
      </trkpt>
      <trkpt lat="44.56026" lon="1.61425">
        <ele>259</ele>
        <time>2021-04-05T11:39:21+02:00</time>
      </trkpt>
      <trkpt lat="44.56003" lon="1.61427">
        <ele>260</ele>
        <time>2021-04-05T11:39:43+02:00</time>
      </trkpt>
      <trkpt lat="44.55979" lon="1.61425">
        <ele>260</ele>
        <time>2021-04-05T11:39:59+02:00</time>
      </trkpt>
      <trkpt lat="44.55954" lon="1.61431">
        <ele>261</ele>
        <time>2021-04-05T11:40:30+02:00</time>
      </trkpt>
      <trkpt lat="44.55932" lon="1.61442">
        <ele>261</ele>
        <time>2021-04-05T11:40:46+02:00</time>
      </trkpt>
      <trkpt lat="44.5591" lon="1.61447">
        <ele>261</ele>
        <time>2021-04-05T11:41:02+02:00</time>
      </trkpt>
      <trkpt lat="44.55889" lon="1.61461">
        <ele>262</ele>
        <time>2021-04-05T11:41:32+02:00</time>
      </trkpt>
      <trkpt lat="44.55869" lon="1.61477">
        <ele>262</ele>
        <time>2021-04-05T11:41:51+02:00</time>
      </trkpt>
      <trkpt lat="44.55848" lon="1.61496">
        <ele>261</ele>
        <time>2021-04-05T11:42:07+02:00</time>
      </trkpt>
      <trkpt lat="44.55834" lon="1.61522">
        <ele>258</ele>
        <time>2021-04-05T11:42:27+02:00</time>
      </trkpt>
      <trkpt lat="44.55818" lon="1.61546">
        <ele>256</ele>
        <time>2021-04-05T11:42:40+02:00</time>
      </trkpt>
      <trkpt lat="44.55805" lon="1.61573">
        <ele>254</ele>
        <time>2021-04-05T11:43:09+02:00</time>
      </trkpt>
      <trkpt lat="44.55788" lon="1.61597">
        <ele>255</ele>
        <time>2021-04-05T11:43:28+02:00</time>
      </trkpt>
      <trkpt lat="44.55771" lon="1.61619">
        <ele>256</ele>
        <time>2021-04-05T11:43:46+02:00</time>
      </trkpt>
      <trkpt lat="44.55748" lon="1.61628">
        <ele>257</ele>
        <time>2021-04-05T11:44:11+02:00</time>
      </trkpt>
      <trkpt lat="44.55729" lon="1.61649">
        <ele>258</ele>
        <time>2021-04-05T11:44:37+02:00</time>
      </trkpt>
      <trkpt lat="44.55719" lon="1.61681">
        <ele>259</ele>
        <time>2021-04-05T11:44:55+02:00</time>
      </trkpt>
      <trkpt lat="44.5571" lon="1.61712">
        <ele>259</ele>
        <time>2021-04-05T11:45:18+02:00</time>
      </trkpt>
      <trkpt lat="44.55699" lon="1.6174">
        <ele>261</ele>
        <time>2021-04-05T11:45:40+02:00</time>
      </trkpt>
      <trkpt lat="44.55691" lon="1.6177">
        <ele>260</ele>
        <time>2021-04-05T11:45:57+02:00</time>
      </trkpt>
      <trkpt lat="44.55682" lon="1.61801">
        <ele>259</ele>
        <time>2021-04-05T11:46:19+02:00</time>
      </trkpt>
      <trkpt lat="44.55671" lon="1.61829">
        <ele>258</ele>
        <time>2021-04-05T11:46:38+02:00</time>
      </trkpt>
      <trkpt lat="44.55658" lon="1.61859">
        <ele>257</ele>
        <time>2021-04-05T11:47:08+02:00</time>
      </trkpt>
      <trkpt lat="44.55646" lon="1.61887">
        <ele>256</ele>
        <time>2021-04-05T11:47:24+02:00</time>
      </trkpt>
      <trkpt lat="44.55633" lon="1.61914">
        <ele>256</ele>
        <time>2021-04-05T11:48:36+02:00</time>
      </trkpt>
      <trkpt lat="44.5562" lon="1.61941">
        <ele>255</ele>
        <time>2021-04-05T11:48:49+02:00</time>
      </trkpt>
      <trkpt lat="44.55611" lon="1.61973">
        <ele>253</ele>
        <time>2021-04-05T11:49:12+02:00</time>
      </trkpt>
      <trkpt lat="44.55596" lon="1.61997">
        <ele>250</ele>
        <time>2021-04-05T11:49:29+02:00</time>
      </trkpt>
      <trkpt lat="44.55576" lon="1.62014">
        <ele>250</ele>
        <time>2021-04-05T11:49:49+02:00</time>
      </trkpt>
      <trkpt lat="44.55555" lon="1.62025">
        <ele>252</ele>
        <time>2021-04-05T11:50:05+02:00</time>
      </trkpt>
      <trkpt lat="44.55534" lon="1.62037">
        <ele>253</ele>
        <time>2021-04-05T11:50:25+02:00</time>
      </trkpt>
      <trkpt lat="44.55512" lon="1.6205">
        <ele>253</ele>
        <time>2021-04-05T11:50:48+02:00</time>
      </trkpt>
      <trkpt lat="44.55491" lon="1.62065">
        <ele>252</ele>
        <time>2021-04-05T11:51:06+02:00</time>
      </trkpt>
      <trkpt lat="44.55471" lon="1.62081">
        <ele>250</ele>
        <time>2021-04-05T11:51:21+02:00</time>
      </trkpt>
      <trkpt lat="44.55448" lon="1.62088">
        <ele>250</ele>
        <time>2021-04-05T11:51:39+02:00</time>
      </trkpt>
      <trkpt lat="44.55425" lon="1.62087">
        <ele>250</ele>
        <time>2021-04-05T11:51:57+02:00</time>
      </trkpt>
      <trkpt lat="44.55402" lon="1.62092">
        <ele>250</ele>
        <time>2021-04-05T11:52:13+02:00</time>
      </trkpt>
      <trkpt lat="44.55392" lon="1.62095">
        <ele>249</ele>
      </trkpt>
      <trkpt lat="44.5538" lon="1.62083">
        <ele>249</ele>
        <time>2021-04-05T11:52:40+02:00</time>
      </trkpt>
      <trkpt lat="44.55361" lon="1.62063">
        <ele>251</ele>
        <time>2021-04-05T11:53:00+02:00</time>
      </trkpt>
      <trkpt lat="44.55345" lon="1.6204">
        <ele>252</ele>
        <time>2021-04-05T11:53:16+02:00</time>
      </trkpt>
      <trkpt lat="44.55321" lon="1.62023">
        <ele>252</ele>
        <time>2021-04-05T11:53:34+02:00</time>
      </trkpt>
      <trkpt lat="44.55322" lon="1.61987">
        <ele>256</ele>
        <time>2021-04-05T11:54:01+02:00</time>
      </trkpt>
      <trkpt lat="44.55303" lon="1.61982">
        <ele>256</ele>
        <time>2021-04-05T11:54:27+02:00</time>
      </trkpt>
      <trkpt lat="44.55277" lon="1.62002">
        <ele>253</ele>
        <time>2021-04-05T11:54:43+02:00</time>
      </trkpt>
      <trkpt lat="44.55254" lon="1.62007">
        <ele>252</ele>
        <time>2021-04-05T11:55:14+02:00</time>
      </trkpt>
      <trkpt lat="44.5523" lon="1.62008">
        <ele>253</ele>
        <time>2021-04-05T11:55:38+02:00</time>
      </trkpt>
      <trkpt lat="44.55205" lon="1.62014">
        <ele>254</ele>
        <time>2021-04-05T11:55:56+02:00</time>
      </trkpt>
      <trkpt lat="44.55181" lon="1.62016">
        <ele>255</ele>
        <time>2021-04-05T11:56:18+02:00</time>
      </trkpt>
      <trkpt lat="44.55157" lon="1.62018">
        <ele>256</ele>
        <time>2021-04-05T11:56:31+02:00</time>
      </trkpt>
      <trkpt lat="44.55135" lon="1.62039">
        <ele>254</ele>
        <time>2021-04-05T11:57:01+02:00</time>
      </trkpt>
      <trkpt lat="44.55122" lon="1.62064">
        <ele>252</ele>
        <time>2021-04-05T11:57:18+02:00</time>
      </trkpt>
      <trkpt lat="44.55101" lon="1.62078">
        <ele>252</ele>
        <time>2021-04-05T11:57:41+02:00</time>
      </trkpt>
      <trkpt lat="44.55079" lon="1.62093">
        <ele>252</ele>
        <time>2021-04-05T11:58:05+02:00</time>
      </trkpt>
      <trkpt lat="44.5506" lon="1.62113">
        <ele>250</ele>
        <time>2021-04-05T11:58:27+02:00</time>
      </trkpt>
      <trkpt lat="44.5504" lon="1.62131">
        <ele>248</ele>
        <time>2021-04-05T11:58:52+02:00</time>
      </trkpt>
      <trkpt lat="44.55017" lon="1.62137">
        <ele>247</ele>
        <time>2021-04-05T11:59:14+02:00</time>
      </trkpt>
      <trkpt lat="44.5499" lon="1.62137">
        <ele>247</ele>
        <time>2021-04-05T11:59:30+02:00</time>
      </trkpt>
      <trkpt lat="44.5497" lon="1.62154">
        <ele>243</ele>
        <time>2021-04-05T11:59:53+02:00</time>
      </trkpt>
      <trkpt lat="44.54956" lon="1.62178">
        <ele>242</ele>
        <time>2021-04-05T12:00:08+02:00</time>
      </trkpt>
      <trkpt lat="44.54944" lon="1.62152">
        <ele>242</ele>
        <time>2021-04-05T12:01:47+02:00</time>
      </trkpt>
      <trkpt lat="44.54942" lon="1.6212">
        <ele>246</ele>
        <time>2021-04-05T12:02:02+02:00</time>
      </trkpt>
      <trkpt lat="44.5493" lon="1.62092">
        <ele>249</ele>
        <time>2021-04-05T12:02:19+02:00</time>
      </trkpt>
      <trkpt lat="44.54911" lon="1.6207">
        <ele>251</ele>
        <time>2021-04-05T12:02:44+02:00</time>
      </trkpt>
      <trkpt lat="44.54887" lon="1.6207">
        <ele>248</ele>
        <time>2021-04-05T12:03:10+02:00</time>
      </trkpt>
      <trkpt lat="44.5486" lon="1.62069">
        <ele>244</ele>
        <time>2021-04-05T12:03:25+02:00</time>
      </trkpt>
      <trkpt lat="44.54836" lon="1.62081">
        <ele>240</ele>
        <time>2021-04-05T12:04:01+02:00</time>
      </trkpt>
      <trkpt lat="44.54817" lon="1.62088">
        <ele>242</ele>
        <time>2021-04-05T12:04:15+02:00</time>
      </trkpt>
      <trkpt lat="44.54796" lon="1.62091">
        <ele>244</ele>
        <time>2021-04-05T12:05:14+02:00</time>
      </trkpt>
      <trkpt lat="44.548" lon="1.62059">
        <ele>245</ele>
        <time>2021-04-05T12:05:53+02:00</time>
      </trkpt>
      <trkpt lat="44.54812" lon="1.62028">
        <ele>245</ele>
        <time>2021-04-05T12:06:02+02:00</time>
      </trkpt>
      <trkpt lat="44.5482" lon="1.62006">
        <ele>246</ele>
        <time>2021-04-05T12:06:45+02:00</time>
      </trkpt>
      <trkpt lat="44.54824" lon="1.6198">
        <ele>246</ele>
        <time>2021-04-05T12:07:12+02:00</time>
      </trkpt>
      <trkpt lat="44.54826" lon="1.61959">
        <ele>246</ele>
        <time>2021-04-05T12:07:34+02:00</time>
      </trkpt>
      <trkpt lat="44.54824" lon="1.61929">
        <ele>247</ele>
        <time>2021-04-05T12:08:58+02:00</time>
      </trkpt>
      <trkpt lat="44.54828" lon="1.61905">
        <ele>248</ele>
        <time>2021-04-05T12:10:25+02:00</time>
      </trkpt>
      <trkpt lat="44.54821" lon="1.61877">
        <ele>250</ele>
        <time>2021-04-05T12:10:50+02:00</time>
      </trkpt>
      <trkpt lat="44.54813" lon="1.6185">
        <ele>250</ele>
        <time>2021-04-05T12:11:16+02:00</time>
      </trkpt>
      <trkpt lat="44.54805" lon="1.61829">
        <ele>250</ele>
        <time>2021-04-05T12:11:38+02:00</time>
      </trkpt>
      <trkpt lat="44.54785" lon="1.61811">
        <ele>248</ele>
        <time>2021-04-05T12:11:53+02:00</time>
      </trkpt>
      <trkpt lat="44.54771" lon="1.6179">
        <ele>245</ele>
        <time>2021-04-05T12:12:24+02:00</time>
      </trkpt>
      <trkpt lat="44.54757" lon="1.6176">
        <ele>242</ele>
        <time>2021-04-05T12:12:42+02:00</time>
      </trkpt>
      <trkpt lat="44.54744" lon="1.61735">
        <ele>241</ele>
        <time>2021-04-05T12:13:09+02:00</time>
      </trkpt>
      <trkpt lat="44.54737" lon="1.61702">
        <ele>245</ele>
        <time>2021-04-05T12:13:18+02:00</time>
      </trkpt>
      <trkpt lat="44.5472" lon="1.6168">
        <ele>246</ele>
        <time>2021-04-05T12:13:50+02:00</time>
      </trkpt>
      <trkpt lat="44.54698" lon="1.61675">
        <ele>242</ele>
        <time>2021-04-05T12:14:12+02:00</time>
      </trkpt>
      <trkpt lat="44.54675" lon="1.61668">
        <ele>239</ele>
        <time>2021-04-05T12:14:59+02:00</time>
      </trkpt>
      <trkpt lat="44.54651" lon="1.61669">
        <ele>236</ele>
        <time>2021-04-05T12:16:37+02:00</time>
      </trkpt>
      <trkpt lat="44.54626" lon="1.61664">
        <ele>236</ele>
        <time>2021-04-05T12:17:23+02:00</time>
      </trkpt>
      <trkpt lat="44.54603" lon="1.61664">
        <ele>234</ele>
        <time>2021-04-05T12:17:35+02:00</time>
      </trkpt>
      <trkpt lat="44.54581" lon="1.61673">
        <ele>232</ele>
        <time>2021-04-05T12:18:06+02:00</time>
      </trkpt>
      <trkpt lat="44.54557" lon="1.61684">
        <ele>230</ele>
        <time>2021-04-05T12:18:44+02:00</time>
      </trkpt>
      <trkpt lat="44.54528" lon="1.61687">
        <ele>228</ele>
        <time>2021-04-05T12:19:06+02:00</time>
      </trkpt>
      <trkpt lat="44.54507" lon="1.61677">
        <ele>227</ele>
        <time>2021-04-05T12:19:23+02:00</time>
      </trkpt>
      <trkpt lat="44.54486" lon="1.61654">
        <ele>230</ele>
        <time>2021-04-05T12:19:50+02:00</time>
      </trkpt>
      <trkpt lat="44.54477" lon="1.61622">
        <ele>233</ele>
        <time>2021-04-05T12:20:16+02:00</time>
      </trkpt>
      <trkpt lat="44.54468" lon="1.61591">
        <ele>234</ele>
        <time>2021-04-05T12:20:40+02:00</time>
      </trkpt>
      <trkpt lat="44.54461" lon="1.6156">
        <ele>235</ele>
        <time>2021-04-05T12:20:56+02:00</time>
      </trkpt>
      <trkpt lat="44.54454" lon="1.61529">
        <ele>236</ele>
        <time>2021-04-05T12:21:05+02:00</time>
      </trkpt>
      <trkpt lat="44.54435" lon="1.61508">
        <ele>234</ele>
        <time>2021-04-05T12:22:29+02:00</time>
      </trkpt>
      <trkpt lat="44.54405" lon="1.61498">
        <ele>232</ele>
        <time>2021-04-05T12:22:37+02:00</time>
      </trkpt>
      <trkpt lat="44.54377" lon="1.61493">
        <ele>234</ele>
        <time>2021-04-05T12:22:44+02:00</time>
      </trkpt>
      <trkpt lat="44.54358" lon="1.61515">
        <ele>231</ele>
        <time>2021-04-05T12:23:39+02:00</time>
      </trkpt>
      <trkpt lat="44.54341" lon="1.61529">
        <ele>229</ele>
        <time>2021-04-05T12:24:09+02:00</time>
      </trkpt>
      <trkpt lat="44.5431" lon="1.61534">
        <ele>228</ele>
        <time>2021-04-05T12:24:18+02:00</time>
      </trkpt>
      <trkpt lat="44.54298" lon="1.61502">
        <ele>229</ele>
        <time>2021-04-05T12:24:27+02:00</time>
      </trkpt>
      <trkpt lat="44.54277" lon="1.61489">
        <ele>231</ele>
        <time>2021-04-05T12:24:46+02:00</time>
      </trkpt>
      <trkpt lat="44.54255" lon="1.61489">
        <ele>229</ele>
        <time>2021-04-05T12:25:08+02:00</time>
      </trkpt>
      <trkpt lat="44.54228" lon="1.6149">
        <ele>226</ele>
        <time>2021-04-05T12:25:31+02:00</time>
      </trkpt>
      <trkpt lat="44.54203" lon="1.61507">
        <ele>222</ele>
        <time>2021-04-05T12:26:55+02:00</time>
      </trkpt>
      <trkpt lat="44.54185" lon="1.6152">
        <ele>223</ele>
        <time>2021-04-05T12:27:11+02:00</time>
      </trkpt>
      <trkpt lat="44.54164" lon="1.61529">
        <ele>224</ele>
        <time>2021-04-05T12:27:34+02:00</time>
      </trkpt>
      <trkpt lat="44.54147" lon="1.61528">
        <ele>225</ele>
        <time>2021-04-05T12:27:59+02:00</time>
      </trkpt>
      <trkpt lat="44.54125" lon="1.6152">
        <ele>225</ele>
        <time>2021-04-05T12:28:29+02:00</time>
      </trkpt>
      <trkpt lat="44.54105" lon="1.61503">
        <ele>220</ele>
        <time>2021-04-05T12:28:51+02:00</time>
      </trkpt>
      <trkpt lat="44.54086" lon="1.61485">
        <ele>221</ele>
        <time>2021-04-05T12:29:19+02:00</time>
      </trkpt>
      <trkpt lat="44.54066" lon="1.61468">
        <ele>222</ele>
        <time>2021-04-05T12:29:35+02:00</time>
      </trkpt>
      <trkpt lat="44.54046" lon="1.61445">
        <ele>220</ele>
        <time>2021-04-05T12:30:07+02:00</time>
      </trkpt>
      <trkpt lat="44.54025" lon="1.61423">
        <ele>215</ele>
        <time>2021-04-05T12:30:13+02:00</time>
      </trkpt>
      <trkpt lat="44.54006" lon="1.61403">
        <ele>212</ele>
        <time>2021-04-05T12:30:38+02:00</time>
      </trkpt>
      <trkpt lat="44.53983" lon="1.61401">
        <ele>210</ele>
        <time>2021-04-05T12:30:58+02:00</time>
      </trkpt>
      <trkpt lat="44.53958" lon="1.61398">
        <ele>207</ele>
        <time>2021-04-05T12:31:21+02:00</time>
      </trkpt>
      <trkpt lat="44.53946" lon="1.61402">
        <ele>206</ele>
        <time>2021-04-05T12:34:11+02:00</time>
      </trkpt>
      <trkpt lat="44.53931" lon="1.61411">
        <ele>204</ele>
        <time>2021-04-05T12:34:40+02:00</time>
      </trkpt>
      <trkpt lat="44.5391" lon="1.61425">
        <ele>203</ele>
        <time>2021-04-05T12:35:02+02:00</time>
      </trkpt>
      <trkpt lat="44.53889" lon="1.61441">
        <ele>205</ele>
        <time>2021-04-05T12:35:13+02:00</time>
      </trkpt>
      <trkpt lat="44.53868" lon="1.61454">
        <ele>205</ele>
        <time>2021-04-05T12:35:30+02:00</time>
      </trkpt>
      <trkpt lat="44.53845" lon="1.61458">
        <ele>204</ele>
        <time>2021-04-05T12:35:49+02:00</time>
      </trkpt>
      <trkpt lat="44.53821" lon="1.61455">
        <ele>202</ele>
        <time>2021-04-05T12:36:08+02:00</time>
      </trkpt>
      <trkpt lat="44.53798" lon="1.61452">
        <ele>200</ele>
        <time>2021-04-05T12:36:26+02:00</time>
      </trkpt>
      <trkpt lat="44.53778" lon="1.61466">
        <ele>200</ele>
        <time>2021-04-05T12:36:47+02:00</time>
      </trkpt>
      <trkpt lat="44.53763" lon="1.6149">
        <ele>199</ele>
        <time>2021-04-05T12:37:05+02:00</time>
      </trkpt>
      <trkpt lat="44.53751" lon="1.6152">
        <ele>200</ele>
        <time>2021-04-05T12:37:25+02:00</time>
      </trkpt>
      <trkpt lat="44.53739" lon="1.61543">
        <ele>203</ele>
        <time>2021-04-05T12:37:50+02:00</time>
      </trkpt>
      <trkpt lat="44.53722" lon="1.61564">
        <ele>203</ele>
        <time>2021-04-05T12:38:08+02:00</time>
      </trkpt>
      <trkpt lat="44.53703" lon="1.61548">
        <ele>200</ele>
        <time>2021-04-05T12:38:30+02:00</time>
      </trkpt>
      <trkpt lat="44.53684" lon="1.61526">
        <ele>199</ele>
        <time>2021-04-05T12:39:01+02:00</time>
      </trkpt>
      <trkpt lat="44.5367" lon="1.61516">
        <ele>199</ele>
      </trkpt>
      <trkpt lat="44.5368" lon="1.61484">
        <ele>204</ele>
        <time>2021-04-05T13:13:23+02:00</time>
      </trkpt>
      <trkpt lat="44.5369" lon="1.61451">
        <ele>210</ele>
        <time>2021-04-05T13:14:25+02:00</time>
      </trkpt>
      <trkpt lat="44.53704" lon="1.61423">
        <ele>212</ele>
        <time>2021-04-05T13:14:52+02:00</time>
      </trkpt>
      <trkpt lat="44.53723" lon="1.61398">
        <ele>213</ele>
        <time>2021-04-05T13:15:10+02:00</time>
      </trkpt>
      <trkpt lat="44.53742" lon="1.61381">
        <ele>212</ele>
        <time>2021-04-05T13:15:24+02:00</time>
      </trkpt>
      <trkpt lat="44.53765" lon="1.61366">
        <ele>212</ele>
        <time>2021-04-05T13:16:25+02:00</time>
      </trkpt>
      <trkpt lat="44.53792" lon="1.61356">
        <ele>212</ele>
        <time>2021-04-05T13:16:51+02:00</time>
      </trkpt>
      <trkpt lat="44.53813" lon="1.61342">
        <ele>212</ele>
        <time>2021-04-05T13:16:55+02:00</time>
      </trkpt>
      <trkpt lat="44.5384" lon="1.61351">
        <ele>207</ele>
        <time>2021-04-05T13:17:31+02:00</time>
      </trkpt>
      <trkpt lat="44.53863" lon="1.6136">
        <ele>205</ele>
        <time>2021-04-05T13:17:35+02:00</time>
      </trkpt>
      <trkpt lat="44.53893" lon="1.61352">
        <ele>205</ele>
        <time>2021-04-05T13:18:13+02:00</time>
      </trkpt>
      <trkpt lat="44.53907" lon="1.61335">
        <ele>205</ele>
        <time>2021-04-05T13:18:52+02:00</time>
      </trkpt>
      <trkpt lat="44.53925" lon="1.61304">
        <ele>213</ele>
        <time>2021-04-05T13:19:01+02:00</time>
      </trkpt>
      <trkpt lat="44.53935" lon="1.6128">
        <ele>219</ele>
        <time>2021-04-05T13:19:21+02:00</time>
      </trkpt>
      <trkpt lat="44.53955" lon="1.61262">
        <ele>223</ele>
        <time>2021-04-05T13:19:42+02:00</time>
      </trkpt>
      <trkpt lat="44.53971" lon="1.61239">
        <ele>226</ele>
        <time>2021-04-05T13:19:57+02:00</time>
      </trkpt>
      <trkpt lat="44.53984" lon="1.61213">
        <ele>227</ele>
        <time>2021-04-05T13:20:20+02:00</time>
      </trkpt>
      <trkpt lat="44.54003" lon="1.61193">
        <ele>226</ele>
        <time>2021-04-05T13:20:40+02:00</time>
      </trkpt>
      <trkpt lat="44.54022" lon="1.61174">
        <ele>227</ele>
        <time>2021-04-05T13:21:05+02:00</time>
      </trkpt>
      <trkpt lat="44.54034" lon="1.61145">
        <ele>230</ele>
        <time>2021-04-05T13:21:30+02:00</time>
      </trkpt>
      <trkpt lat="44.54057" lon="1.61144">
        <ele>229</ele>
        <time>2021-04-05T13:21:50+02:00</time>
      </trkpt>
      <trkpt lat="44.54081" lon="1.6115">
        <ele>227</ele>
        <time>2021-04-05T13:22:18+02:00</time>
      </trkpt>
      <trkpt lat="44.54099" lon="1.61132">
        <ele>230</ele>
        <time>2021-04-05T13:22:34+02:00</time>
      </trkpt>
      <trkpt lat="44.54114" lon="1.61108">
        <ele>231</ele>
        <time>2021-04-05T13:22:58+02:00</time>
      </trkpt>
      <trkpt lat="44.54131" lon="1.61084">
        <ele>230</ele>
        <time>2021-04-05T13:23:14+02:00</time>
      </trkpt>
      <trkpt lat="44.54147" lon="1.61063">
        <ele>232</ele>
        <time>2021-04-05T13:23:40+02:00</time>
      </trkpt>
      <trkpt lat="44.54167" lon="1.61043">
        <ele>233</ele>
        <time>2021-04-05T13:24:02+02:00</time>
      </trkpt>
      <trkpt lat="44.54187" lon="1.61028">
        <ele>236</ele>
        <time>2021-04-05T13:24:17+02:00</time>
      </trkpt>
      <trkpt lat="44.54206" lon="1.6101">
        <ele>238</ele>
        <time>2021-04-05T13:24:39+02:00</time>
      </trkpt>
      <trkpt lat="44.54219" lon="1.60984">
        <ele>239</ele>
        <time>2021-04-05T13:25:02+02:00</time>
      </trkpt>
      <trkpt lat="44.54233" lon="1.60958">
        <ele>241</ele>
        <time>2021-04-05T13:25:23+02:00</time>
      </trkpt>
      <trkpt lat="44.54254" lon="1.60944">
        <ele>241</ele>
        <time>2021-04-05T13:25:52+02:00</time>
      </trkpt>
      <trkpt lat="44.54274" lon="1.6093">
        <ele>243</ele>
        <time>2021-04-05T13:26:11+02:00</time>
      </trkpt>
      <trkpt lat="44.54293" lon="1.60912">
        <ele>244</ele>
        <time>2021-04-05T13:26:31+02:00</time>
      </trkpt>
      <trkpt lat="44.54314" lon="1.60894">
        <ele>246</ele>
        <time>2021-04-05T13:27:03+02:00</time>
      </trkpt>
      <trkpt lat="44.54335" lon="1.6088">
        <ele>247</ele>
        <time>2021-04-05T13:27:17+02:00</time>
      </trkpt>
      <trkpt lat="44.54354" lon="1.60861">
        <ele>250</ele>
        <time>2021-04-05T13:27:37+02:00</time>
      </trkpt>
      <trkpt lat="44.54377" lon="1.60859">
        <ele>250</ele>
        <time>2021-04-05T13:28:00+02:00</time>
      </trkpt>
      <trkpt lat="44.54399" lon="1.6085">
        <ele>250</ele>
        <time>2021-04-05T13:28:34+02:00</time>
      </trkpt>
      <trkpt lat="44.54421" lon="1.60839">
        <ele>249</ele>
        <time>2021-04-05T13:29:00+02:00</time>
      </trkpt>
      <trkpt lat="44.54444" lon="1.60833">
        <ele>250</ele>
        <time>2021-04-05T13:29:20+02:00</time>
      </trkpt>
      <trkpt lat="44.54467" lon="1.60829">
        <ele>251</ele>
        <time>2021-04-05T13:30:37+02:00</time>
      </trkpt>
      <trkpt lat="44.54488" lon="1.6082">
        <ele>252</ele>
        <time>2021-04-05T13:30:57+02:00</time>
      </trkpt>
      <trkpt lat="44.54509" lon="1.60806">
        <ele>253</ele>
        <time>2021-04-05T13:31:19+02:00</time>
      </trkpt>
      <trkpt lat="44.5453" lon="1.60794">
        <ele>254</ele>
        <time>2021-04-05T13:31:37+02:00</time>
      </trkpt>
      <trkpt lat="44.54552" lon="1.60783">
        <ele>254</ele>
        <time>2021-04-05T13:32:03+02:00</time>
      </trkpt>
      <trkpt lat="44.54566" lon="1.60756">
        <ele>252</ele>
        <time>2021-04-05T13:32:20+02:00</time>
      </trkpt>
      <trkpt lat="44.54575" lon="1.60746">
        <ele>251</ele>
      </trkpt>
      <trkpt lat="44.54587" lon="1.60749">
        <ele>251</ele>
        <time>2021-04-05T13:32:43+02:00</time>
      </trkpt>
      <trkpt lat="44.54607" lon="1.60757">
        <ele>254</ele>
        <time>2021-04-05T13:33:09+02:00</time>
      </trkpt>
      <trkpt lat="44.5463" lon="1.60755">
        <ele>256</ele>
        <time>2021-04-05T13:33:22+02:00</time>
      </trkpt>
      <trkpt lat="44.5465" lon="1.60736">
        <ele>257</ele>
        <time>2021-04-05T13:33:44+02:00</time>
      </trkpt>
      <trkpt lat="44.54663" lon="1.60709">
        <ele>257</ele>
        <time>2021-04-05T13:33:57+02:00</time>
      </trkpt>
      <trkpt lat="44.54681" lon="1.60694">
        <ele>259</ele>
        <time>2021-04-05T13:34:16+02:00</time>
      </trkpt>
      <trkpt lat="44.54698" lon="1.60666">
        <ele>260</ele>
        <time>2021-04-05T13:34:32+02:00</time>
      </trkpt>
      <trkpt lat="44.54715" lon="1.60646">
        <ele>262</ele>
        <time>2021-04-05T13:34:53+02:00</time>
      </trkpt>
      <trkpt lat="44.54731" lon="1.60623">
        <ele>261</ele>
        <time>2021-04-05T13:35:15+02:00</time>
      </trkpt>
      <trkpt lat="44.54743" lon="1.60596">
        <ele>259</ele>
        <time>2021-04-05T13:35:41+02:00</time>
      </trkpt>
      <trkpt lat="44.54752" lon="1.60564">
        <ele>258</ele>
        <time>2021-04-05T13:36:00+02:00</time>
      </trkpt>
      <trkpt lat="44.54757" lon="1.60533">
        <ele>259</ele>
        <time>2021-04-05T13:36:14+02:00</time>
      </trkpt>
      <trkpt lat="44.54764" lon="1.60501">
        <ele>260</ele>
        <time>2021-04-05T13:36:32+02:00</time>
      </trkpt>
      <trkpt lat="44.54775" lon="1.60473">
        <ele>261</ele>
        <time>2021-04-05T13:36:53+02:00</time>
      </trkpt>
      <trkpt lat="44.54794" lon="1.60452">
        <ele>263</ele>
        <time>2021-04-05T13:37:06+02:00</time>
      </trkpt>
      <trkpt lat="44.54813" lon="1.60435">
        <ele>263</ele>
        <time>2021-04-05T13:37:34+02:00</time>
      </trkpt>
      <trkpt lat="44.54837" lon="1.60435">
        <ele>264</ele>
        <time>2021-04-05T13:37:59+02:00</time>
      </trkpt>
      <trkpt lat="44.54858" lon="1.6045">
        <ele>267</ele>
        <time>2021-04-05T13:38:28+02:00</time>
      </trkpt>
      <trkpt lat="44.5488" lon="1.6046">
        <ele>268</ele>
        <time>2021-04-05T13:38:39+02:00</time>
      </trkpt>
      <trkpt lat="44.54902" lon="1.60466">
        <ele>269</ele>
        <time>2021-04-05T13:39:02+02:00</time>
      </trkpt>
      <trkpt lat="44.54925" lon="1.60473">
        <ele>270</ele>
        <time>2021-04-05T13:39:11+02:00</time>
      </trkpt>
      <trkpt lat="44.5495" lon="1.60482">
        <ele>270</ele>
        <time>2021-04-05T13:39:44+02:00</time>
      </trkpt>
      <trkpt lat="44.54973" lon="1.60486">
        <ele>269</ele>
        <time>2021-04-05T13:40:25+02:00</time>
      </trkpt>
      <trkpt lat="44.54996" lon="1.60489">
        <ele>269</ele>
        <time>2021-04-05T13:40:43+02:00</time>
      </trkpt>
      <trkpt lat="44.55019" lon="1.60492">
        <ele>270</ele>
        <time>2021-04-05T13:41:09+02:00</time>
      </trkpt>
      <trkpt lat="44.55042" lon="1.605">
        <ele>272</ele>
        <time>2021-04-05T13:41:27+02:00</time>
      </trkpt>
      <trkpt lat="44.55065" lon="1.60506">
        <ele>274</ele>
        <time>2021-04-05T13:41:52+02:00</time>
      </trkpt>
      <trkpt lat="44.55085" lon="1.60503">
        <ele>274</ele>
        <time>2021-04-05T13:42:16+02:00</time>
      </trkpt>
      <trkpt lat="44.55106" lon="1.60502">
        <ele>275</ele>
        <time>2021-04-05T13:42:34+02:00</time>
      </trkpt>
      <trkpt lat="44.55134" lon="1.60503">
        <ele>277</ele>
        <time>2021-04-05T13:43:03+02:00</time>
      </trkpt>
      <trkpt lat="44.55157" lon="1.60509">
        <ele>279</ele>
        <time>2021-04-05T13:43:41+02:00</time>
      </trkpt>
      <trkpt lat="44.55183" lon="1.60521">
        <ele>280</ele>
        <time>2021-04-05T13:43:49+02:00</time>
      </trkpt>
      <trkpt lat="44.55202" lon="1.6054">
        <ele>280</ele>
        <time>2021-04-05T13:44:01+02:00</time>
      </trkpt>
      <trkpt lat="44.55215" lon="1.60566">
        <ele>281</ele>
        <time>2021-04-05T13:44:18+02:00</time>
      </trkpt>
      <trkpt lat="44.55216" lon="1.60598">
        <ele>283</ele>
        <time>2021-04-05T13:44:46+02:00</time>
      </trkpt>
      <trkpt lat="44.55227" lon="1.60628">
        <ele>284</ele>
        <time>2021-04-05T13:45:06+02:00</time>
      </trkpt>
      <trkpt lat="44.55236" lon="1.60653">
        <ele>285</ele>
        <time>2021-04-05T13:46:46+02:00</time>
      </trkpt>
      <trkpt lat="44.55254" lon="1.60678">
        <ele>285</ele>
        <time>2021-04-05T13:47:05+02:00</time>
      </trkpt>
      <trkpt lat="44.55264" lon="1.60707">
        <ele>287</ele>
        <time>2021-04-05T13:47:25+02:00</time>
      </trkpt>
      <trkpt lat="44.55273" lon="1.60737">
        <ele>289</ele>
        <time>2021-04-05T13:47:53+02:00</time>
      </trkpt>
      <trkpt lat="44.55281" lon="1.60767">
        <ele>290</ele>
        <time>2021-04-05T13:48:20+02:00</time>
      </trkpt>
      <trkpt lat="44.55303" lon="1.6077">
        <ele>287</ele>
        <time>2021-04-05T13:48:40+02:00</time>
      </trkpt>
      <trkpt lat="44.55326" lon="1.60762">
        <ele>283</ele>
        <time>2021-04-05T13:48:58+02:00</time>
      </trkpt>
      <trkpt lat="44.55349" lon="1.60752">
        <ele>282</ele>
        <time>2021-04-05T13:49:17+02:00</time>
      </trkpt>
      <trkpt lat="44.5537" lon="1.60742">
        <ele>284</ele>
        <time>2021-04-05T13:49:34+02:00</time>
      </trkpt>
      <trkpt lat="44.5539" lon="1.60725">
        <ele>285</ele>
        <time>2021-04-05T13:49:52+02:00</time>
      </trkpt>
      <trkpt lat="44.5541" lon="1.60709">
        <ele>285</ele>
        <time>2021-04-05T13:50:11+02:00</time>
      </trkpt>
      <trkpt lat="44.5543" lon="1.60696">
        <ele>286</ele>
        <time>2021-04-05T13:50:30+02:00</time>
      </trkpt>
      <trkpt lat="44.55452" lon="1.60685">
        <ele>287</ele>
        <time>2021-04-05T13:50:49+02:00</time>
      </trkpt>
      <trkpt lat="44.55473" lon="1.60676">
        <ele>288</ele>
        <time>2021-04-05T13:51:09+02:00</time>
      </trkpt>
      <trkpt lat="44.55497" lon="1.60674">
        <ele>290</ele>
        <time>2021-04-05T13:51:31+02:00</time>
      </trkpt>
      <trkpt lat="44.55521" lon="1.60673">
        <ele>291</ele>
        <time>2021-04-05T13:52:03+02:00</time>
      </trkpt>
      <trkpt lat="44.55545" lon="1.60673">
        <ele>291</ele>
        <time>2021-04-05T13:52:15+02:00</time>
      </trkpt>
      <trkpt lat="44.55569" lon="1.60673">
        <ele>291</ele>
        <time>2021-04-05T13:52:34+02:00</time>
      </trkpt>
      <trkpt lat="44.55589" lon="1.6069">
        <ele>293</ele>
        <time>2021-04-05T13:52:49+02:00</time>
      </trkpt>
      <trkpt lat="44.55598" lon="1.60719">
        <ele>295</ele>
        <time>2021-04-05T13:53:08+02:00</time>
      </trkpt>
      <trkpt lat="44.55603" lon="1.60745">
        <ele>297</ele>
      </trkpt>
      <trkpt lat="44.55616" lon="1.6074">
        <ele>296</ele>
        <time>2021-04-05T13:53:36+02:00</time>
      </trkpt>
      <trkpt lat="44.55639" lon="1.6074">
        <ele>297</ele>
        <time>2021-04-05T13:53:55+02:00</time>
      </trkpt>
      <trkpt lat="44.55659" lon="1.60724">
        <ele>296</ele>
        <time>2021-04-05T13:54:19+02:00</time>
      </trkpt>
      <trkpt lat="44.55672" lon="1.60697">
        <ele>295</ele>
        <time>2021-04-05T13:54:40+02:00</time>
      </trkpt>
      <trkpt lat="44.55681" lon="1.60668">
        <ele>293</ele>
        <time>2021-04-05T13:55:00+02:00</time>
      </trkpt>
      <trkpt lat="44.55693" lon="1.60639">
        <ele>293</ele>
        <time>2021-04-05T13:55:20+02:00</time>
      </trkpt>
      <trkpt lat="44.55706" lon="1.60614">
        <ele>292</ele>
        <time>2021-04-05T13:55:37+02:00</time>
      </trkpt>
      <trkpt lat="44.5573" lon="1.60614">
        <ele>292</ele>
        <time>2021-04-05T13:56:14+02:00</time>
      </trkpt>
      <trkpt lat="44.55753" lon="1.60622">
        <ele>291</ele>
        <time>2021-04-05T13:56:43+02:00</time>
      </trkpt>
      <trkpt lat="44.55775" lon="1.6063">
        <ele>289</ele>
        <time>2021-04-05T13:57:01+02:00</time>
      </trkpt>
      <trkpt lat="44.55794" lon="1.60642">
        <ele>287</ele>
        <time>2021-04-05T13:57:17+02:00</time>
      </trkpt>
      <trkpt lat="44.55816" lon="1.60662">
        <ele>284</ele>
        <time>2021-04-05T13:57:39+02:00</time>
      </trkpt>
      <trkpt lat="44.55836" lon="1.60679">
        <ele>282</ele>
        <time>2021-04-05T13:57:57+02:00</time>
      </trkpt>
      <trkpt lat="44.55848" lon="1.60706">
        <ele>281</ele>
        <time>2021-04-05T13:58:14+02:00</time>
      </trkpt>
      <trkpt lat="44.55858" lon="1.60735">
        <ele>280</ele>
        <time>2021-04-05T13:58:32+02:00</time>
      </trkpt>
      <trkpt lat="44.55871" lon="1.60761">
        <ele>279</ele>
        <time>2021-04-05T13:58:55+02:00</time>
      </trkpt>
      <trkpt lat="44.55882" lon="1.60789">
        <ele>279</ele>
        <time>2021-04-05T13:59:14+02:00</time>
      </trkpt>
      <trkpt lat="44.55894" lon="1.60816">
        <ele>278</ele>
        <time>2021-04-05T13:59:34+02:00</time>
      </trkpt>
      <trkpt lat="44.55913" lon="1.60836">
        <ele>275</ele>
        <time>2021-04-05T13:59:52+02:00</time>
      </trkpt>
      <trkpt lat="44.55931" lon="1.60856">
        <ele>275</ele>
        <time>2021-04-05T14:00:24+02:00</time>
      </trkpt>
      <trkpt lat="44.55951" lon="1.60874">
        <ele>275</ele>
        <time>2021-04-05T14:00:41+02:00</time>
      </trkpt>
      <trkpt lat="44.55972" lon="1.60889">
        <ele>274</ele>
        <time>2021-04-05T14:00:57+02:00</time>
      </trkpt>
      <trkpt lat="44.55995" lon="1.60899">
        <ele>273</ele>
        <time>2021-04-05T14:01:14+02:00</time>
      </trkpt>
      <trkpt lat="44.5601" lon="1.60918">
        <ele>273</ele>
      </trkpt>
      <trkpt lat="44.56023" lon="1.60901">
        <ele>273</ele>
        <time>2021-04-05T14:01:41+02:00</time>
      </trkpt>
      <trkpt lat="44.5604" lon="1.60901">
        <ele>272</ele>
        <time>2021-04-05T14:02:06+02:00</time>
      </trkpt>
      <trkpt lat="44.56064" lon="1.60907">
        <ele>272</ele>
        <time>2021-04-05T14:02:38+02:00</time>
      </trkpt>
      <trkpt lat="44.56087" lon="1.60915">
        <ele>271</ele>
        <time>2021-04-05T14:02:48+02:00</time>
      </trkpt>
      <trkpt lat="44.56109" lon="1.60917">
        <ele>270</ele>
        <time>2021-04-05T14:03:05+02:00</time>
      </trkpt>
      <trkpt lat="44.56132" lon="1.6092">
        <ele>269</ele>
        <time>2021-04-05T14:03:21+02:00</time>
      </trkpt>
      <trkpt lat="44.56154" lon="1.60927">
        <ele>268</ele>
        <time>2021-04-05T14:03:38+02:00</time>
      </trkpt>
      <trkpt lat="44.56175" lon="1.6094">
        <ele>267</ele>
        <time>2021-04-05T14:04:03+02:00</time>
      </trkpt>
      <trkpt lat="44.56191" lon="1.60962">
        <ele>266</ele>
        <time>2021-04-05T14:04:25+02:00</time>
      </trkpt>
      <trkpt lat="44.56211" lon="1.60979">
        <ele>265</ele>
        <time>2021-04-05T14:04:40+02:00</time>
      </trkpt>
      <trkpt lat="44.56228" lon="1.60958">
        <ele>265</ele>
        <time>2021-04-05T14:05:01+02:00</time>
      </trkpt>
      <trkpt lat="44.56238" lon="1.60928">
        <ele>267</ele>
        <time>2021-04-05T14:05:35+02:00</time>
      </trkpt>
      <trkpt lat="44.56254" lon="1.60904">
        <ele>268</ele>
        <time>2021-04-05T14:06:16+02:00</time>
      </trkpt>
      <trkpt lat="44.5627" lon="1.6088">
        <ele>270</ele>
        <time>2021-04-05T14:06:57+02:00</time>
      </trkpt>
      <trkpt lat="44.56284" lon="1.60852">
        <ele>271</ele>
        <time>2021-04-05T14:07:18+02:00</time>
      </trkpt>
      <trkpt lat="44.56296" lon="1.60826">
        <ele>271</ele>
        <time>2021-04-05T14:07:41+02:00</time>
      </trkpt>
      <trkpt lat="44.56309" lon="1.608">
        <ele>271</ele>
        <time>2021-04-05T14:07:46+02:00</time>
      </trkpt>
      <trkpt lat="44.56317" lon="1.60778">
        <ele>270</ele>
        <time>2021-04-05T14:11:35+02:00</time>
      </trkpt>
      <trkpt lat="44.56323" lon="1.60752">
        <ele>270</ele>
        <time>2021-04-05T14:12:07+02:00</time>
      </trkpt>
      <trkpt lat="44.5633" lon="1.60722">
        <ele>272</ele>
        <time>2021-04-05T14:12:34+02:00</time>
      </trkpt>
      <trkpt lat="44.56338" lon="1.60707">
        <ele>273</ele>
      </trkpt>
      <trkpt lat="44.56352" lon="1.6071">
        <ele>273</ele>
        <time>2021-04-05T14:13:15+02:00</time>
      </trkpt>
      <trkpt lat="44.56375" lon="1.60705">
        <ele>274</ele>
        <time>2021-04-05T14:13:26+02:00</time>
      </trkpt>
      <trkpt lat="44.56398" lon="1.607">
        <ele>274</ele>
        <time>2021-04-05T14:13:42+02:00</time>
      </trkpt>
      <trkpt lat="44.56422" lon="1.60691">
        <ele>275</ele>
        <time>2021-04-05T14:14:16+02:00</time>
      </trkpt>
      <trkpt lat="44.56445" lon="1.60683">
        <ele>275</ele>
        <time>2021-04-05T14:14:34+02:00</time>
      </trkpt>
      <trkpt lat="44.56468" lon="1.60678">
        <ele>273</ele>
        <time>2021-04-05T14:14:42+02:00</time>
      </trkpt>
      <trkpt lat="44.56491" lon="1.60671">
        <ele>272</ele>
        <time>2021-04-05T14:15:05+02:00</time>
      </trkpt>
      <trkpt lat="44.5651" lon="1.60654">
        <ele>272</ele>
        <time>2021-04-05T14:15:23+02:00</time>
      </trkpt>
      <trkpt lat="44.56532" lon="1.60639">
        <ele>273</ele>
        <time>2021-04-05T14:15:37+02:00</time>
      </trkpt>
      <trkpt lat="44.56544" lon="1.60611">
        <ele>274</ele>
        <time>2021-04-05T14:16:00+02:00</time>
      </trkpt>
      <trkpt lat="44.56557" lon="1.60584">
        <ele>275</ele>
        <time>2021-04-05T14:16:19+02:00</time>
      </trkpt>
      <trkpt lat="44.56569" lon="1.60557">
        <ele>275</ele>
        <time>2021-04-05T14:16:39+02:00</time>
      </trkpt>
      <trkpt lat="44.56585" lon="1.60532">
        <ele>275</ele>
        <time>2021-04-05T14:17:00+02:00</time>
      </trkpt>
      <trkpt lat="44.56601" lon="1.60508">
        <ele>276</ele>
        <time>2021-04-05T14:17:21+02:00</time>
      </trkpt>
      <trkpt lat="44.56619" lon="1.60488">
        <ele>277</ele>
        <time>2021-04-05T14:17:41+02:00</time>
      </trkpt>
      <trkpt lat="44.56637" lon="1.60469">
        <ele>277</ele>
        <time>2021-04-05T14:17:57+02:00</time>
      </trkpt>
      <trkpt lat="44.56655" lon="1.60447">
        <ele>276</ele>
        <time>2021-04-05T14:18:15+02:00</time>
      </trkpt>
      <trkpt lat="44.56667" lon="1.6042">
        <ele>275</ele>
        <time>2021-04-05T14:18:33+02:00</time>
      </trkpt>
      <trkpt lat="44.56678" lon="1.60391">
        <ele>277</ele>
        <time>2021-04-05T14:18:51+02:00</time>
      </trkpt>
      <trkpt lat="44.56686" lon="1.60366">
        <ele>278</ele>
        <time>2021-04-05T14:19:14+02:00</time>
      </trkpt>
      <trkpt lat="44.56664" lon="1.6036">
        <ele>279</ele>
      </trkpt>
      <trkpt lat="44.56653" lon="1.60337">
        <ele>281</ele>
        <time>2021-04-05T14:19:31+02:00</time>
      </trkpt>
      <trkpt lat="44.56664" lon="1.60326">
        <ele>281</ele>
        <time>2021-04-05T14:20:06+02:00</time>
      </trkpt>
      <trkpt lat="44.56694" lon="1.60314">
        <ele>279</ele>
        <time>2021-04-05T14:20:43+02:00</time>
      </trkpt>
      <trkpt lat="44.56695" lon="1.60279">
        <ele>281</ele>
        <time>2021-04-05T14:21:05+02:00</time>
      </trkpt>
      <trkpt lat="44.56706" lon="1.6025">
        <ele>281</ele>
        <time>2021-04-05T14:21:19+02:00</time>
      </trkpt>
      <trkpt lat="44.56726" lon="1.60248">
        <ele>279</ele>
      </trkpt>
      <trkpt lat="44.56738" lon="1.60264">
        <ele>277</ele>
      </trkpt>
      <trkpt lat="44.56739" lon="1.60281">
        <ele>277</ele>
        <time>2021-04-05T14:22:03+02:00</time>
      </trkpt>
    </trkseg>
  </trk>
</gpx>